sensor_id;sensor_type;location;lat;lon;timestamp;pressure;altitude;pressure_sealevel;temperature;humidity
14067;BME280;7108;42.684;23.350;2022-08-21T00:01:16;94764.50;;;20.88;100.00
14067;BME280;7108;42.684;23.350;2022-08-21T00:03:43;94772.97;;;20.93;100.00
14067;BME280;7108;42.684;23.350;2022-08-21T00:06:09;94771.78;;;20.94;100.00
14067;BME280;7108;42.684;23.350;2022-08-21T00:08:35;94764.50;;;20.88;100.00
14067;BME280;7108;42.684;23.350;2022-08-21T00:11:01;94750.50;;;20.86;100.00
14067;BME280;7108;42.684;23.350;2022-08-21T00:13:27;94764.09;;;20.89;100.00
14067;BME280;7108;42.684;23.350;2022-08-21T00:15:53;94744.78;;;20.80;100.00
14067;BME280;7108;42.684;23.350;2022-08-21T00:18:18;94750.81;;;20.88;100.00
14067;BME280;7108;42.684;23.350;2022-08-21T00:20:45;94755.75;;;20.93;100.00
14067;BME280;7108;42.684;23.350;2022-08-21T00:23:11;94750.16;;;20.84;100.00
14067;BME280;7108;42.684;23.350;2022-08-21T00:25:38;94748.97;;;20.85;100.00
14067;BME280;7108;42.684;23.350;2022-08-21T00:28:04;94752.81;;;20.87;100.00
14067;BME280;7108;42.684;23.350;2022-08-21T00:30:32;94747.66;;;20.89;100.00
14067;BME280;7108;42.684;23.350;2022-08-21T00:32:58;94747.31;;;20.87;100.00
14067;BME280;7108;42.684;23.350;2022-08-21T00:35:30;94745.78;;;20.86;100.00
14067;BME280;7108;42.684;23.350;2022-08-21T00:37:56;94733.91;;;20.77;100.00
14067;BME280;7108;42.684;23.350;2022-08-21T00:40:28;94730.84;;;20.75;100.00
14067;BME280;7108;42.684;23.350;2022-08-21T00:42:54;94748.19;;;20.84;100.00
14067;BME280;7108;42.684;23.350;2022-08-21T00:45:21;94747.75;;;20.86;100.00
14067;BME280;7108;42.684;23.350;2022-08-21T00:47:47;94750.06;;;20.87;100.00
14067;BME280;7108;42.684;23.350;2022-08-21T00:50:13;94750.06;;;20.87;100.00
14067;BME280;7108;42.684;23.350;2022-08-21T00:52:39;94737.09;;;20.75;100.00
14067;BME280;7108;42.684;23.350;2022-08-21T00:55:08;94746.16;;;20.72;100.00
14067;BME280;7108;42.684;23.350;2022-08-21T00:57:55;94745.31;;;20.75;100.00
14067;BME280;7108;42.684;23.350;2022-08-21T01:00:31;94744.25;;;20.85;100.00
14067;BME280;7108;42.684;23.350;2022-08-21T01:02:58;94745.13;;;20.82;100.00
14067;BME280;7108;42.684;23.350;2022-08-21T01:05:24;94742.03;;;20.80;100.00
14067;BME280;7108;42.684;23.350;2022-08-21T01:07:50;94736.78;;;20.73;100.00
14067;BME280;7108;42.684;23.350;2022-08-21T01:10:16;94732.81;;;20.74;100.00
14067;BME280;7108;42.684;23.350;2022-08-21T01:12:43;94725.22;;;20.66;100.00
14067;BME280;7108;42.684;23.350;2022-08-21T01:15:11;94739.50;;;20.73;100.00
14067;BME280;7108;42.684;23.350;2022-08-21T01:17:40;94730.47;;;20.73;100.00
14067;BME280;7108;42.684;23.350;2022-08-21T01:20:08;94717.97;;;20.72;100.00
14067;BME280;7108;42.684;23.350;2022-08-21T01:22:34;94729.31;;;20.74;100.00
14067;BME280;7108;42.684;23.350;2022-08-21T01:24:59;94712.72;;;20.65;100.00
14067;BME280;7108;42.684;23.350;2022-08-21T01:27:25;94726.03;;;20.79;100.00
14067;BME280;7108;42.684;23.350;2022-08-21T01:30:03;94726.72;;;20.83;100.00
14067;BME280;7108;42.684;23.350;2022-08-21T01:32:33;94719.53;;;20.73;100.00
14067;BME280;7108;42.684;23.350;2022-08-21T01:34:59;94726.03;;;20.79;100.00
14067;BME280;7108;42.684;23.350;2022-08-21T01:37:24;94714.44;;;20.75;100.00
14067;BME280;7108;42.684;23.350;2022-08-21T01:39:50;94720.66;;;20.75;100.00
14067;BME280;7108;42.684;23.350;2022-08-21T01:42:15;94727.34;;;20.74;100.00
14067;BME280;7108;42.684;23.350;2022-08-21T01:44:41;94731.53;;;20.79;100.00
14067;BME280;7108;42.684;23.350;2022-08-21T01:47:09;94730.31;;;20.80;100.00
14067;BME280;7108;42.684;23.350;2022-08-21T01:49:36;94733.16;;;20.76;100.00
14067;BME280;7108;42.684;23.350;2022-08-21T01:52:03;94729.72;;;20.72;100.00
14067;BME280;7108;42.684;23.350;2022-08-21T01:54:29;94721.50;;;20.72;100.00
14067;BME280;7108;42.684;23.350;2022-08-21T01:56:55;94732.41;;;20.76;100.00
14067;BME280;7108;42.684;23.350;2022-08-21T01:59:22;94721.84;;;20.74;100.00
14067;BME280;7108;42.684;23.350;2022-08-21T02:01:48;94721.75;;;20.78;100.00
14067;BME280;7108;42.684;23.350;2022-08-21T02:04:14;94731.44;;;20.82;100.00
14067;BME280;7108;42.684;23.350;2022-08-21T02:06:39;94740.31;;;20.86;100.00
14067;BME280;7108;42.684;23.350;2022-08-21T02:09:07;94735.72;;;20.83;100.00
14067;BME280;7108;42.684;23.350;2022-08-21T02:11:33;94737.00;;;20.79;100.00
14067;BME280;7108;42.684;23.350;2022-08-21T02:13:59;94713.38;;;20.69;100.00
14067;BME280;7108;42.684;23.350;2022-08-21T02:16:25;94736.91;;;20.82;100.00
14067;BME280;7108;42.684;23.350;2022-08-21T02:18:51;94739.97;;;20.84;100.00
14067;BME280;7108;42.684;23.350;2022-08-21T02:21:16;94745.69;;;20.90;100.00
14067;BME280;7108;42.684;23.350;2022-08-21T02:23:42;94747.13;;;20.94;100.00
14067;BME280;7108;42.684;23.350;2022-08-21T02:26:08;94740.13;;;20.93;100.00
14067;BME280;7108;42.684;23.350;2022-08-21T02:28:34;94744.41;;;20.94;100.00
14067;BME280;7108;42.684;23.350;2022-08-21T02:31:01;94736.47;;;20.84;100.00
14067;BME280;7108;42.684;23.350;2022-08-21T02:33:27;94741.09;;;20.87;100.00
14067;BME280;7108;42.684;23.350;2022-08-21T02:35:54;94753.03;;;20.93;100.00
14067;BME280;7108;42.684;23.350;2022-08-21T02:38:23;94756.88;;;20.95;100.00
14067;BME280;7108;42.684;23.350;2022-08-21T02:40:50;94743.59;;;20.94;100.00
14067;BME280;7108;42.684;23.350;2022-08-21T02:43:17;94735.50;;;20.90;100.00
14067;BME280;7108;42.684;23.350;2022-08-21T02:45:44;94750.28;;;20.93;100.00
14067;BME280;7108;42.684;23.350;2022-08-21T02:48:12;94748.53;;;20.86;100.00
14067;BME280;7108;42.684;23.350;2022-08-21T02:50:43;94751.50;;;20.92;100.00
14067;BME280;7108;42.684;23.350;2022-08-21T02:53:10;94741.94;;;20.84;100.00
14067;BME280;7108;42.684;23.350;2022-08-21T02:55:37;94749.19;;;20.90;100.00
14067;BME280;7108;42.684;23.350;2022-08-21T02:58:05;94735.03;;;20.79;100.00
14067;BME280;7108;42.684;23.350;2022-08-21T03:00:32;94735.44;;;20.78;100.00
14067;BME280;7108;42.684;23.350;2022-08-21T03:02:59;94750.34;;;20.77;100.00
14067;BME280;7108;42.684;23.350;2022-08-21T03:05:27;94751.78;;;20.81;100.00
14067;BME280;7108;42.684;23.350;2022-08-21T03:07:53;94745.38;;;20.72;100.00
14067;BME280;7108;42.684;23.350;2022-08-21T03:10:21;94771.75;;;20.82;100.00
14067;BME280;7108;42.684;23.350;2022-08-21T03:12:48;94761.13;;;20.84;100.00
14067;BME280;7108;42.684;23.350;2022-08-21T03:15:16;94738.69;;;20.73;100.00
14067;BME280;7108;42.684;23.350;2022-08-21T03:17:43;94754.53;;;20.81;100.00
14067;BME280;7108;42.684;23.350;2022-08-21T03:20:09;94746.84;;;20.76;100.00
14067;BME280;7108;42.684;23.350;2022-08-21T03:22:35;94733.03;;;20.51;100.00
14067;BME280;7108;42.684;23.350;2022-08-21T03:25:00;94757.91;;;20.57;100.00
14067;BME280;7108;42.684;23.350;2022-08-21T03:27:28;94762.31;;;20.67;100.00
14067;BME280;7108;42.684;23.350;2022-08-21T03:29:54;94761.66;;;20.63;100.00
14067;BME280;7108;42.684;23.350;2022-08-21T03:32:20;94763.28;;;20.60;100.00
14067;BME280;7108;42.684;23.350;2022-08-21T03:34:46;94761.59;;;20.50;100.00
14067;BME280;7108;42.684;23.350;2022-08-21T03:37:13;94754.84;;;20.55;100.00
14067;BME280;7108;42.684;23.350;2022-08-21T03:39:39;94758.88;;;20.50;100.00
14067;BME280;7108;42.684;23.350;2022-08-21T03:42:05;94758.91;;;20.35;100.00
14067;BME280;7108;42.684;23.350;2022-08-21T03:44:31;94746.50;;;20.30;100.00
14067;BME280;7108;42.684;23.350;2022-08-21T03:46:57;94749.16;;;20.34;100.00
14067;BME280;7108;42.684;23.350;2022-08-21T03:49:24;94753.13;;;20.17;100.00
14067;BME280;7108;42.684;23.350;2022-08-21T03:51:50;94768.75;;;20.16;100.00
14067;BME280;7108;42.684;23.350;2022-08-21T03:54:15;94756.19;;;20.03;100.00
14067;BME280;7108;42.684;23.350;2022-08-21T03:56:41;94768.25;;;20.05;100.00
14067;BME280;7108;42.684;23.350;2022-08-21T03:59:06;94769.44;;;20.04;100.00
14067;BME280;7108;42.684;23.350;2022-08-21T04:01:33;94771.50;;;20.00;100.00
14067;BME280;7108;42.684;23.350;2022-08-21T04:03:59;94761.16;;;19.92;100.00
14067;BME280;7108;42.684;23.350;2022-08-21T04:06:25;94776.03;;;20.07;100.00
14067;BME280;7108;42.684;23.350;2022-08-21T04:08:52;94782.53;;;20.13;100.00
14067;BME280;7108;42.684;23.350;2022-08-21T04:11:18;94767.50;;;20.05;100.00
14067;BME280;7108;42.684;23.350;2022-08-21T04:13:43;94773.28;;;20.07;100.00
14067;BME280;7108;42.684;23.350;2022-08-21T04:16:09;94768.84;;;20.13;100.00
14067;BME280;7108;42.684;23.350;2022-08-21T04:18:34;94770.91;;;20.09;100.00
14067;BME280;7108;42.684;23.350;2022-08-21T04:21:01;94768.53;;;20.11;100.00
14067;BME280;7108;42.684;23.350;2022-08-21T04:23:27;94766.38;;;20.18;100.00
14067;BME280;7108;42.684;23.350;2022-08-21T04:25:54;94758.34;;;20.11;100.00
14067;BME280;7108;42.684;23.350;2022-08-21T04:28:21;94756.28;;;19.99;100.00
14067;BME280;7108;42.684;23.350;2022-08-21T04:30:46;94757.81;;;20.00;100.00
14067;BME280;7108;42.684;23.350;2022-08-21T04:33:12;94772.28;;;20.17;100.00
14067;BME280;7108;42.684;23.350;2022-08-21T04:35:38;94766.63;;;20.08;100.00
14067;BME280;7108;42.684;23.350;2022-08-21T04:38:03;94766.91;;;20.13;100.00
14067;BME280;7108;42.684;23.350;2022-08-21T04:40:29;94771.75;;;20.22;100.00
14067;BME280;7108;42.684;23.350;2022-08-21T04:42:57;94770.47;;;20.26;100.00
14067;BME280;7108;42.684;23.350;2022-08-21T04:47:57;94777.75;;;20.33;100.00
14067;BME280;7108;42.684;23.350;2022-08-21T04:50:28;94768.50;;;20.27;100.00
14067;BME280;7108;42.684;23.350;2022-08-21T04:52:55;94761.41;;;20.29;100.00
14067;BME280;7108;42.684;23.350;2022-08-21T04:55:21;94765.41;;;20.25;100.00
14067;BME280;7108;42.684;23.350;2022-08-21T04:57:48;94760.28;;;20.27;100.00
14067;BME280;7108;42.684;23.350;2022-08-21T05:00:16;94763.94;;;20.36;100.00
14067;BME280;7108;42.684;23.350;2022-08-21T05:02:43;94755.06;;;20.32;100.00
14067;BME280;7108;42.684;23.350;2022-08-21T05:05:10;94758.72;;;20.42;100.00
14067;BME280;7108;42.684;23.350;2022-08-21T05:07:35;94747.13;;;20.38;100.00
14067;BME280;7108;42.684;23.350;2022-08-21T05:10:02;94758.53;;;20.48;100.00
14067;BME280;7108;42.684;23.350;2022-08-21T05:12:28;94765.44;;;20.53;100.00
14067;BME280;7108;42.684;23.350;2022-08-21T05:14:56;94758.63;;;20.45;100.00
14067;BME280;7108;42.684;23.350;2022-08-21T05:17:21;94759.75;;;20.47;100.00
14067;BME280;7108;42.684;23.350;2022-08-21T05:19:46;94770.88;;;20.41;100.00
14067;BME280;7108;42.684;23.350;2022-08-21T05:22:19;94763.00;;;20.42;100.00
14067;BME280;7108;42.684;23.350;2022-08-21T05:24:44;94737.88;;;20.32;100.00
14067;BME280;7108;42.684;23.350;2022-08-21T05:27:10;94754.44;;;20.41;100.00
14067;BME280;7108;42.684;23.350;2022-08-21T05:29:35;94746.25;;;20.41;100.00
14067;BME280;7108;42.684;23.350;2022-08-21T05:32:01;94753.41;;;20.50;100.00
14067;BME280;7108;42.684;23.350;2022-08-21T05:34:32;94756.47;;;20.52;100.00
14067;BME280;7108;42.684;23.350;2022-08-21T05:36:58;94770.13;;;20.68;100.00
14067;BME280;7108;42.684;23.350;2022-08-21T05:39:23;94755.44;;;20.62;100.00
14067;BME280;7108;42.684;23.350;2022-08-21T05:41:49;94748.03;;;20.75;100.00
14067;BME280;7108;42.684;23.350;2022-08-21T05:44:14;94744.25;;;20.85;100.00
14067;BME280;7108;42.684;23.350;2022-08-21T05:46:40;94742.28;;;20.86;100.00
14067;BME280;7108;42.684;23.350;2022-08-21T05:49:05;94760.81;;;20.94;100.00
14067;BME280;7108;42.684;23.350;2022-08-21T05:51:31;94745.50;;;20.97;100.00
14067;BME280;7108;42.684;23.350;2022-08-21T05:53:56;94734.94;;;20.95;100.00
14067;BME280;7108;42.684;23.350;2022-08-21T05:56:22;94723.69;;;20.93;100.00
14067;BME280;7108;42.684;23.350;2022-08-21T05:58:47;94740.59;;;21.04;100.00
14067;BME280;7108;42.684;23.350;2022-08-21T06:01:13;94741.53;;;20.98;100.00
14067;BME280;7108;42.684;23.350;2022-08-21T06:03:40;94749.44;;;20.96;100.00
14067;BME280;7108;42.684;23.350;2022-08-21T06:06:06;94746.56;;;20.87;100.00
14067;BME280;7108;42.684;23.350;2022-08-21T06:08:32;94749.19;;;20.90;100.00
14067;BME280;7108;42.684;23.350;2022-08-21T06:11:00;94758.31;;;21.00;100.00
14067;BME280;7108;42.684;23.350;2022-08-21T06:13:27;94749.31;;;20.87;100.00
14067;BME280;7108;42.684;23.350;2022-08-21T06:16:07;94757.31;;;20.94;100.00
14067;BME280;7108;42.684;23.350;2022-08-21T06:18:34;94744.81;;;20.93;100.00
14067;BME280;7108;42.684;23.350;2022-08-21T06:21:00;94743.94;;;20.96;100.00
14067;BME280;7108;42.684;23.350;2022-08-21T06:23:25;94751.72;;;20.97;100.00
14067;BME280;7108;42.684;23.350;2022-08-21T06:25:51;94748.91;;;21.01;100.00
14067;BME280;7108;42.684;23.350;2022-08-21T06:28:16;94734.31;;;21.04;100.00
14067;BME280;7108;42.684;23.350;2022-08-21T06:30:42;94750.78;;;21.16;100.00
14067;BME280;7108;42.684;23.350;2022-08-21T06:33:07;94757.69;;;21.20;100.00
14067;BME280;7108;42.684;23.350;2022-08-21T06:35:33;94732.47;;;21.13;100.00
14067;BME280;7108;42.684;23.350;2022-08-21T06:37:59;94741.34;;;21.17;100.00
14067;BME280;7108;42.684;23.350;2022-08-21T06:40:28;94759.91;;;21.25;100.00
14067;BME280;7108;42.684;23.350;2022-08-21T06:42:53;94740.91;;;21.06;100.00
14067;BME280;7108;42.684;23.350;2022-08-21T06:45:19;94743.34;;;21.16;100.00
14067;BME280;7108;42.684;23.350;2022-08-21T06:47:45;94744.00;;;21.20;100.00
14067;BME280;7108;42.684;23.350;2022-08-21T06:50:11;94756.53;;;21.34;100.00
14067;BME280;7108;42.684;23.350;2022-08-21T06:52:37;94754.97;;;21.33;100.00
14067;BME280;7108;42.684;23.350;2022-08-21T06:55:05;94762.22;;;21.39;100.00
14067;BME280;7108;42.684;23.350;2022-08-21T06:57:31;94752.03;;;21.40;100.00
14067;BME280;7108;42.684;23.350;2022-08-21T06:59:57;94758.16;;;21.44;100.00
14067;BME280;7108;42.684;23.350;2022-08-21T07:02:22;94766.28;;;21.47;100.00
14067;BME280;7108;42.684;23.350;2022-08-21T07:04:48;94759.16;;;21.37;100.00
14067;BME280;7108;42.684;23.350;2022-08-21T07:07:13;94775.38;;;21.44;100.00
14067;BME280;7108;42.684;23.350;2022-08-21T07:09:39;94772.63;;;21.44;100.00
14067;BME280;7108;42.684;23.350;2022-08-21T07:12:05;94753.19;;;21.14;100.00
14067;BME280;7108;42.684;23.350;2022-08-21T07:14:31;94760.91;;;21.31;100.00
14067;BME280;7108;42.684;23.350;2022-08-21T07:16:56;94748.41;;;21.30;100.00
14067;BME280;7108;42.684;23.350;2022-08-21T07:19:22;94760.16;;;21.43;100.00
14067;BME280;7108;42.684;23.350;2022-08-21T07:21:47;94768.94;;;21.38;100.00
14067;BME280;7108;42.684;23.350;2022-08-21T07:24:13;94765.28;;;21.41;100.00
14067;BME280;7108;42.684;23.350;2022-08-21T07:26:39;94763.44;;;21.51;100.00
14067;BME280;7108;42.684;23.350;2022-08-21T07:29:05;94761.06;;;21.53;100.00
14067;BME280;7108;42.684;23.350;2022-08-21T07:31:30;94748.97;;;21.50;100.00
14067;BME280;7108;42.684;23.350;2022-08-21T07:33:56;94760.84;;;21.60;100.00
14067;BME280;7108;42.684;23.350;2022-08-21T07:36:22;94750.50;;;21.39;100.00
14067;BME280;7108;42.684;23.350;2022-08-21T07:38:47;94743.16;;;21.48;100.00
14067;BME280;7108;42.684;23.350;2022-08-21T07:41:19;94743.09;;;21.64;100.00
14067;BME280;7108;42.684;23.350;2022-08-21T07:43:45;94741.88;;;21.77;100.00
14067;BME280;7108;42.684;23.350;2022-08-21T07:46:12;94726.63;;;21.64;100.00
14067;BME280;7108;42.684;23.350;2022-08-21T07:48:37;94731.56;;;21.81;100.00
14067;BME280;7108;42.684;23.350;2022-08-21T07:51:07;94728.47;;;21.79;100.00
14067;BME280;7108;42.684;23.350;2022-08-21T07:53:34;94728.34;;;21.95;100.00
14067;BME280;7108;42.684;23.350;2022-08-21T07:56:01;94737.13;;;21.90;100.00
14067;BME280;7108;42.684;23.350;2022-08-21T07:58:29;94741.63;;;21.97;100.00
14067;BME280;7108;42.684;23.350;2022-08-21T08:00:54;94733.94;;;21.92;100.00
14067;BME280;7108;42.684;23.350;2022-08-21T08:03:20;94735.94;;;21.91;100.00
14067;BME280;7108;42.684;23.350;2022-08-21T08:05:46;94719.50;;;21.79;100.00
14067;BME280;7108;42.684;23.350;2022-08-21T08:08:11;94727.91;;;21.84;100.00
14067;BME280;7108;42.684;23.350;2022-08-21T08:10:38;94733.94;;;21.92;100.00
14067;BME280;7108;42.684;23.350;2022-08-21T08:13:03;94738.88;;;21.97;100.00
14067;BME280;7108;42.684;23.350;2022-08-21T08:15:29;94749.00;;;21.87;100.00
14067;BME280;7108;42.684;23.350;2022-08-21T08:17:55;94739.69;;;21.73;100.00
14067;BME280;7108;42.684;23.350;2022-08-21T08:20:21;94732.09;;;21.77;100.00
14067;BME280;7108;42.684;23.350;2022-08-21T08:22:48;94733.84;;;21.83;100.00
14067;BME280;7108;42.684;23.350;2022-08-21T08:25:15;94726.19;;;21.66;100.00
14067;BME280;7108;42.684;23.350;2022-08-21T08:27:41;94741.19;;;21.74;100.00
14067;BME280;7108;42.684;23.350;2022-08-21T08:30:09;94743.94;;;21.86;100.00
14067;BME280;7108;42.684;23.350;2022-08-21T08:32:36;94741.19;;;21.86;100.00
14067;BME280;7108;42.684;23.350;2022-08-21T08:35:02;94739.78;;;21.81;100.00
14067;BME280;7108;42.684;23.350;2022-08-21T08:37:28;94735.72;;;21.74;100.00
14067;BME280;7108;42.684;23.350;2022-08-21T08:39:54;94747.47;;;21.86;100.00
14067;BME280;7108;42.684;23.350;2022-08-21T08:42:27;94740.97;;;21.93;100.00
14067;BME280;7108;42.684;23.350;2022-08-21T08:45:15;94737.47;;;21.92;100.00
14067;BME280;7108;42.684;23.350;2022-08-21T08:47:48;94732.63;;;21.96;100.00
14067;BME280;7108;42.684;23.350;2022-08-21T08:50:22;94714.84;;;22.01;100.00
14067;BME280;7108;42.684;23.350;2022-08-21T08:53:02;94733.13;;;22.16;100.00
14067;BME280;7108;42.684;23.350;2022-08-21T08:55:35;94735.44;;;22.30;100.00
14067;BME280;7108;42.684;23.350;2022-08-21T08:58:01;94720.94;;;22.30;100.00
14067;BME280;7108;42.684;23.350;2022-08-21T09:00:28;94731.16;;;22.29;100.00
14067;BME280;7108;42.684;23.350;2022-08-21T09:02:56;94735.88;;;22.29;100.00
14067;BME280;7108;42.684;23.350;2022-08-21T09:05:27;94727.19;;;22.43;100.00
14067;BME280;7108;42.684;23.350;2022-08-21T09:10:37;94718.69;;;22.49;100.00
14067;BME280;7108;42.684;23.350;2022-08-21T09:18:05;94704.06;;;22.74;100.00
14067;BME280;7108;42.684;23.350;2022-08-21T09:20:59;94710.03;;;22.72;100.00
14067;BME280;7108;42.684;23.350;2022-08-21T09:26:18;94697.75;;;22.86;100.00
14067;BME280;7108;42.684;23.350;2022-08-21T09:28:44;94697.94;;;22.91;100.00
14067;BME280;7108;42.684;23.350;2022-08-21T09:31:39;94695.97;;;22.92;100.00
14067;BME280;7108;42.684;23.350;2022-08-21T09:34:07;94694.16;;;22.98;100.00
14067;BME280;7108;42.684;23.350;2022-08-21T09:36:47;94698.88;;;22.97;100.00
14067;BME280;7108;42.684;23.350;2022-08-21T09:39:32;94690.72;;;23.06;100.00
14067;BME280;7108;42.684;23.350;2022-08-21T09:42:08;94695.00;;;23.07;100.00
14067;BME280;7108;42.684;23.350;2022-08-21T09:44:36;94700.63;;;23.04;100.00
14067;BME280;7108;42.684;23.350;2022-08-21T09:47:09;94699.53;;;23.01;100.00
14067;BME280;7108;42.684;23.350;2022-08-21T09:49:39;94693.59;;;23.03;100.00
14067;BME280;7108;42.684;23.350;2022-08-21T09:52:18;94683.06;;;23.01;100.00
14067;BME280;7108;42.684;23.350;2022-08-21T09:54:52;94678.06;;;23.09;100.00
14067;BME280;7108;42.684;23.350;2022-08-21T09:57:28;94684.50;;;23.14;100.00
14067;BME280;7108;42.684;23.350;2022-08-21T10:00:25;94675.06;;;23.15;100.00
14067;BME280;7108;42.684;23.350;2022-08-21T10:02:51;94677.03;;;23.15;100.00
14067;BME280;7108;42.684;23.350;2022-08-21T10:05:22;94680.59;;;23.24;100.00
14067;BME280;7108;42.684;23.350;2022-08-21T10:07:49;94680.91;;;23.26;100.00
14067;BME280;7108;42.684;23.350;2022-08-21T10:10:20;94676.47;;;23.20;100.00
14067;BME280;7108;42.684;23.350;2022-08-21T10:13:21;94668.22;;;23.20;100.00
14067;BME280;7108;42.684;23.350;2022-08-21T10:16:29;94673.13;;;23.25;100.00
14067;BME280;7108;42.684;23.350;2022-08-21T10:21:28;94656.13;;;23.17;100.00
14067;BME280;7108;42.684;23.350;2022-08-21T10:30:11;94652.63;;;23.26;100.00
14067;BME280;7108;42.684;23.350;2022-08-21T10:35:37;94654.13;;;23.48;100.00
14067;BME280;7108;42.684;23.350;2022-08-21T10:41:46;94650.81;;;23.62;100.00
14067;BME280;7108;42.684;23.350;2022-08-21T10:45:02;94649.50;;;23.76;100.00
14067;BME280;7108;42.684;23.350;2022-08-21T10:47:28;94641.44;;;23.90;100.00
14067;BME280;7108;42.684;23.350;2022-08-21T10:50:10;94638.84;;;24.04;100.00
14067;BME280;7108;42.684;23.350;2022-08-21T10:55:40;94624.03;;;24.20;100.00
14067;BME280;7108;42.684;23.350;2022-08-21T10:58:12;94625.69;;;24.35;100.00
14067;BME280;7108;42.684;23.350;2022-08-21T11:00:48;94623.59;;;24.48;100.00
14067;BME280;7108;42.684;23.350;2022-08-21T11:08:45;94610.69;;;24.72;100.00
14067;BME280;7108;42.684;23.350;2022-08-21T11:16:30;94585.97;;;24.95;100.00
14067;BME280;7108;42.684;23.350;2022-08-21T11:19:41;94599.16;;;25.09;100.00
14067;BME280;7108;42.684;23.350;2022-08-21T11:24:50;94599.53;;;25.25;100.00
14067;BME280;7108;42.684;23.350;2022-08-21T11:27:24;94600.59;;;25.28;100.00
14067;BME280;7108;42.684;23.350;2022-08-21T11:29:55;94598.94;;;25.21;100.00
14067;BME280;7108;42.684;23.350;2022-08-21T11:43:37;94594.91;;;25.31;100.00
14067;BME280;7108;42.684;23.350;2022-08-21T11:46:11;94595.94;;;25.43;100.00
14067;BME280;7108;42.684;23.350;2022-08-21T11:49:03;94589.69;;;25.33;100.00
14067;BME280;7108;42.684;23.350;2022-08-21T11:57:17;94589.19;;;25.12;100.00
14067;BME280;7108;42.684;23.350;2022-08-21T12:02:18;94588.72;;;24.95;100.00
14067;BME280;7108;42.684;23.350;2022-08-21T12:04:48;94575.63;;;24.81;100.00
14067;BME280;7108;42.684;23.350;2022-08-21T12:07:32;94574.13;;;24.71;100.00
14067;BME280;7108;42.684;23.350;2022-08-21T12:09:59;94568.75;;;24.68;100.00
14067;BME280;7108;42.684;23.350;2022-08-21T12:12:33;94571.66;;;24.73;100.00
14067;BME280;7108;42.684;23.350;2022-08-21T12:25:36;94567.72;;;24.47;100.00
14067;BME280;7108;42.684;23.350;2022-08-21T12:28:08;94578.13;;;24.52;100.00
14067;BME280;7108;42.684;23.350;2022-08-21T12:30:41;94581.34;;;24.51;100.00
14067;BME280;7108;42.684;23.350;2022-08-21T12:33:31;94593.41;;;24.53;100.00
14067;BME280;7108;42.684;23.350;2022-08-21T12:36:14;94582.88;;;24.52;100.00
14067;BME280;7108;42.684;23.350;2022-08-21T12:41:45;94578.13;;;24.52;100.00
14067;BME280;7108;42.684;23.350;2022-08-21T12:44:17;94565.44;;;24.46;100.00
14067;BME280;7108;42.684;23.350;2022-08-21T12:47:03;94562.66;;;24.37;100.00
14067;BME280;7108;42.684;23.350;2022-08-21T12:49:36;94576.75;;;24.48;100.00
14067;BME280;7108;42.684;23.350;2022-08-21T12:52:20;94576.75;;;24.48;100.00
14067;BME280;7108;42.684;23.350;2022-08-21T12:54:46;94570.47;;;24.47;100.00
14067;BME280;7108;42.684;23.350;2022-08-21T12:57:21;94564.19;;;24.38;100.00
14067;BME280;7108;42.684;23.350;2022-08-21T13:02:24;94556.41;;;24.37;100.00
14067;BME280;7108;42.684;23.350;2022-08-21T13:04:50;94574.91;;;24.36;100.00
14067;BME280;7108;42.684;23.350;2022-08-21T13:07:28;94569.38;;;24.36;100.00
14067;BME280;7108;42.684;23.350;2022-08-21T13:10:00;94575.22;;;24.38;100.00
14067;BME280;7108;42.684;23.350;2022-08-21T13:12:28;94564.19;;;24.38;100.00
14067;BME280;7108;42.684;23.350;2022-08-21T13:15:00;94570.16;;;24.37;100.00
14067;BME280;7108;42.684;23.350;2022-08-21T13:17:27;94568.31;;;24.34;100.00
14067;BME280;7108;42.684;23.350;2022-08-21T13:19:58;94567.84;;;24.35;100.00
14067;BME280;7108;42.684;23.350;2022-08-21T13:22:25;94554.41;;;24.28;100.00
14067;BME280;7108;42.684;23.350;2022-08-21T13:24:51;94542.47;;;24.31;100.00
14067;BME280;7108;42.684;23.350;2022-08-21T13:27:28;94546.00;;;24.32;100.00
14067;BME280;7108;42.684;23.350;2022-08-21T13:30:18;94541.25;;;24.32;100.00
14067;BME280;7108;42.684;23.350;2022-08-21T13:32:48;94543.53;;;24.34;100.00
14067;BME280;7108;42.684;23.350;2022-08-21T13:35:25;94519.22;;;24.32;100.00
14067;BME280;7108;42.684;23.350;2022-08-21T13:37:53;94525.19;;;24.40;100.00
14067;BME280;7108;42.684;23.350;2022-08-21T13:40:28;94504.69;;;24.23;100.00
14067;BME280;7108;42.684;23.350;2022-08-21T13:42:54;94533.59;;;24.36;100.00
14067;BME280;7108;42.684;23.350;2022-08-21T13:45:27;94542.63;;;24.46;100.00
14067;BME280;7108;42.684;23.350;2022-08-21T13:47:53;94544.13;;;24.38;100.00
14067;BME280;7108;42.684;23.350;2022-08-21T13:50:21;94541.84;;;24.45;100.00
14067;BME280;7108;42.684;23.350;2022-08-21T13:53:19;94538.66;;;24.47;100.00
14067;BME280;7108;42.684;23.350;2022-08-21T13:55:45;94538.78;;;24.52;100.00
14067;BME280;7108;42.684;23.350;2022-08-21T13:58:11;94545.09;;;24.52;100.00
14067;BME280;7108;42.684;23.350;2022-08-21T14:00:49;94545.84;;;24.53;100.00
14067;BME280;7108;42.684;23.350;2022-08-21T14:03:38;94537.88;;;24.55;100.00
14067;BME280;7108;42.684;23.350;2022-08-21T14:06:34;94529.63;;;24.55;100.00
14067;BME280;7108;42.684;23.350;2022-08-21T14:09:09;94532.66;;;24.57;100.00
14067;BME280;7108;42.684;23.350;2022-08-21T14:11:35;94524.25;;;24.51;100.00
14067;BME280;7108;42.684;23.350;2022-08-21T14:14:05;94527.47;;;24.59;100.00
14067;BME280;7108;42.684;23.350;2022-08-21T14:16:44;94524.38;;;24.57;100.00
14067;BME280;7108;42.684;23.350;2022-08-21T14:19:18;94519.22;;;24.50;100.00
14067;BME280;7108;42.684;23.350;2022-08-21T14:21:44;94533.28;;;24.52;100.00